• Join FlightAware (Why Join?)
  • Login
  • US Flag 
03:55AM EDT


 

Airport Tracker/Info


-or-


 

Live Flight TrackerFlight Track Log ✈ N868TB ✈ 01-May-2013 ✈ SC5 - KSBP

Flight Track Log - Related Links

Times and Time Zones

All times are in EDT time to prevent confusion due to time zone crossing. See the N868TB flight status page for this flight to view local times or setup timezone preferences in your user account.

Time Position Orientation Groundspeed Altitude Reporting Facility
EDT Latitude Longitude Course Direction KTS MPH feet Rate Location/Type
03:23PM 32.8500 -117.1667 34° Northeast 101 116 4,600  Level Southern California TRACON
03:24PM 32.8667 -117.2000 301° West 99 114 5,100 420 Climbing Southern California TRACON
03:25PM 32.8833 -117.2167 320° Northwest 104 120 5,500 360 Climbing Southern California TRACON
03:26PM 32.9167 -117.2333 337° Northwest 99 114 5,900 360 Climbing Southern California TRACON
03:27PM 32.9333 -117.2500 320° Northwest 104 120 6,300 360 Climbing Southern California TRACON
03:28PM -19.9122 -160.1481 122° Southeast  Level Estimated
03:28PM 32.9667 -117.2667 337° Northwest 105 121 6,700  Level Southern California TRACON
03:29PM -19.8851 -160.1283 34° Northeast  Level Estimated
03:29PM 32.9833 -117.2833 320° Northwest 124 143 6,700  Level Southern California TRACON
03:30PM 33.0167 -117.3167 320° Northwest 128 147 6,700  Level Southern California TRACON
03:31PM 33.0500 -117.3333 337° Northwest 130 150 6,700  Level Southern California TRACON
03:32PM 33.0833 -117.3667 320° Northwest 130 150 6,700  Level Southern California TRACON
03:33PM 33.0961 -117.3858 309° West 129 148 6,700 -60 Level Los Angeles Center
03:34PM 33.1333 -117.4167 325° Northwest 130 150 6,600  Descending Southern California TRACON
03:35PM 33.1500 -117.4500 301° West 132 152 6,700  Climbing Southern California TRACON
03:36PM 33.1833 -117.4667 337° Northwest 128 147 6,700  Level Southern California TRACON
03:37PM 33.2167 -117.5000 320° Northwest 126 145 6,700 -60 Level Southern California TRACON
03:38PM 33.2333 -117.5333 301° West 126 145 6,600  Descending Southern California TRACON
03:39PM 33.2667 -117.5500 337° Northwest 125 144 6,700  Climbing Southern California TRACON
03:40PM 33.2833 -117.5833 301° West 127 146 6,700  Level Southern California TRACON
03:41PM 33.3167 -117.6167 320° Northwest 126 145 6,700 -60 Level Southern California TRACON
03:42PM 33.3381 -117.6428 314° West 127 146 6,600 -60 Descending Los Angeles Center
03:43PM 33.3656 -117.6694 321° Northwest 127 146 6,600  Level Los Angeles Center
03:44PM 33.3833 -117.7000 305° West 128 147 6,700  Climbing Southern California TRACON
03:45PM 33.4167 -117.7333 320° Northwest 128 147 6,600 -60 Descending Southern California TRACON
03:46PM 33.4333 -117.7667 301° West 127 146 6,600  Level Southern California TRACON
03:47PM 33.4667 -117.8000 320° Northwest 129 148 6,600  Level Southern California TRACON
03:48PM 33.4833 -117.8167 320° Northwest 126 145 6,600  Level Southern California TRACON
03:49PM 33.5167 -117.8500 320° Northwest 129 148 6,700  Climbing Southern California TRACON
03:50PM 33.5333 -117.9000 292° West 135 155 6,600 -120 Descending Southern California TRACON
03:51PM 33.5436 -117.9028 347° North 132 152 6,600  Level Los Angeles Center
03:52PM 33.5644 -117.9406 304° West 135 155 6,600  Level Los Angeles Center
03:53PM 33.5853 -117.9764 305° West 133 153 6,600  Level Los Angeles Center
03:54PM 33.6086 -118.0111 309° West 133 153 6,600  Level Los Angeles Center
03:55PM 33.6308 -118.0461 307° West 133 153 6,600  Level Los Angeles Center
03:55PM 33.6500 -118.0667 318° Northwest 137 158 6,600  Level Southern California TRACON
03:56PM 33.6667 -118.1000 301° West 137 158 6,600  Level Southern California TRACON
03:57PM 33.6833 -118.1333 301° West 134 154 6,600  Level Southern California TRACON
03:58PM 33.7039 -118.1581 315° West 133 153 6,600  Level Los Angeles Center
03:59PM 33.7250 -118.1936 306° West 131 151 6,600  Level Los Angeles Center
04:00PM 33.7450 -118.2300 303° West 132 152 6,600  Level Los Angeles Center
04:01PM 33.7706 -118.2594 316° Northwest 131 151 6,600  Level Los Angeles Center
04:02PM 33.8011 -118.2950 316° Northwest 131 151 6,600  Level Los Angeles Center
04:03PM 33.8286 -118.3214 321° Northwest 128 147 6,600  Level Los Angeles Center
04:04PM 33.8550 -118.3472 321° Northwest 125 144 6,600  Level Los Angeles Center
04:05PM 33.8856 -118.3828 316° Northwest 127 146 6,600  Level Los Angeles Center
04:06PM 33.9125 -118.4094 321° Northwest 127 146 6,600  Level Los Angeles Center
04:07PM 33.9406 -118.4325 326° Northwest 124 143 6,700  Climbing Los Angeles Center
04:08PM 33.9686 -118.4533 328° Northwest 121 139 6,700 -60 Level Los Angeles Center
04:09PM 34.0033 -118.4728 335° Northwest 121 139 6,600 -60 Descending Los Angeles Center
04:10PM 34.0306 -118.4969 324° Northwest 121 139 6,600  Level Los Angeles Center
04:11PM 34.0553 -118.5156 328° Northwest 122 140 6,700  Climbing Los Angeles Center
04:12PM 34.0886 -118.5458 323° Northwest 123 142 6,600 -60 Descending Los Angeles Center
04:13PM 34.1128 -118.5733 317° Northwest 123 142 6,600  Level Los Angeles Center
04:14PM 34.1189 -118.6111 281° West 123 142 6,600  Level Los Angeles Center
04:16PM 34.1425 -118.6506 306° West 122 140 6,700  Climbing Los Angeles Center
04:16PM 34.1450 -118.6669 280° West 127 146 6,600 -120 Descending Los Angeles Center
04:17PM 34.1575 -118.6847 310° West 119 137 6,600 60 Level Los Angeles Center
04:17PM 34.1603 -118.7061 279° West 117 135 6,700  Climbing Los Angeles Center
04:18PM 34.1703 -118.7211 309° West 117 135 6,600 -120 Descending Los Angeles Center
04:18PM 34.1753 -118.7428 286° West 119 137 6,600  Level Los Angeles Center
04:19PM 34.1847 -118.7589 305° West 120 138 6,600  Level Los Angeles Center
04:19PM 34.1886 -118.7828 281° West 120 138 6,600  Level Los Angeles Center
04:20PM 34.1967 -118.7944 310° West 117 135 6,600  Level Los Angeles Center
04:20PM 34.2053 -118.8189 293° West 117 135 6,600  Level Los Angeles Center
04:21PM 34.2147 -118.8269 325° Northwest 117 135 6,600  Level Los Angeles Center
04:21PM 34.2231 -118.8494 294° West 132 152 6,600  Level Los Angeles Center
04:22PM 34.2336 -118.8722 299° West 127 146 6,600  Level Los Angeles Center
04:22PM 34.2364 -118.8894 281° West 128 147 6,600  Level Los Angeles Center
04:23PM 34.2442 -118.9128 292° West 128 147 6,600  Level Los Angeles Center
04:23PM 34.2481 -118.9325 283° West 128 147 6,600  Level Los Angeles Center
04:24PM 34.2550 -118.9536 292° West 128 147 6,600  Level Los Angeles Center
04:24PM 34.2611 -118.9803 286° West 127 146 6,600 60 Level Los Angeles Center
04:25PM 34.2653 -118.9947 289° West 128 147 6,700 60 Climbing Los Angeles Center
04:25PM 34.2717 -119.0186 288° West 130 150 6,700  Level Los Angeles Center
04:26PM 34.2781 -119.0350 295° West 130 150 6,700 -120 Level Los Angeles Center
04:26PM 34.2856 -119.0608 289° West 132 152 6,600  Descending Los Angeles Center
04:27PM 34.2925 -119.0844 290° West 131 151 6,700 60 Climbing Los Angeles Center
04:27PM 34.3008 -119.1003 303° West 131 151 6,700  Level Los Angeles Center
04:28PM 34.3058 -119.1247 284° West 131 151 6,700 -120 Level Los Angeles Center
04:28PM 34.3169 -119.1444 304° West 129 148 6,600  Descending Los Angeles Center
04:29PM 34.3200 -119.1644 280° West 130 150 6,700  Climbing Los Angeles Center
04:29PM 34.3281 -119.1747 314° West 128 147 6,600  Descending Los Angeles Center
04:30PM 34.3325 -119.1944 285° West 129 148 6,700  Climbing Los Angeles Center
04:30PM 34.3422 -119.2186 296° West 128 147 6,600 60 Descending Los Angeles Center
04:31PM 34.3506 -119.2411 294° West 128 147 6,800 420 Climbing Los Angeles Center
04:32PM 34.3778 -119.2800 310° West 107 123 7,500 420 Climbing Los Angeles Center
04:33PM 34.3892 -119.3039 300° West 109 125 7,700 360 Climbing Los Angeles Center
04:34PM 34.3964 -119.3358 285° West 101 116 8,200 360 Climbing Los Angeles Center
04:35PM 34.4008 -119.3722 278° West 102 117 8,500 180 Climbing Los Angeles Center
04:36PM 34.4111 -119.4092 289° West 108 124 8,600 60 Climbing Los Angeles Center
04:37PM 34.4297 -119.4450 302° West 118 136 8,700  Climbing Los Angeles Center
04:38PM 34.4508 -119.4897 300° West 125 144 8,700  Level Los Angeles Center
04:39PM 34.4631 -119.5269 292° West 121 139 8,700  Level Los Angeles Center
04:40PM 34.4708 -119.5661 284° West 119 137 8,700  Level Los Angeles Center
04:41PM 34.4783 -119.6086 282° West 126 145 8,700 -60 Level Los Angeles Center
04:42PM 34.4942 -119.6453 298° West 126 145 8,600 -60 Descending Los Angeles Center
04:43PM 34.5128 -119.6756 307° West 116 133 8,600  Level Los Angeles Center
04:45PM 34.5328 -119.7264 296° West 118 136 8,600  Level Los Angeles Center
04:46PM 34.5444 -119.7647 290° West 120 138 8,600  Level Los Angeles Center
04:47PM 34.5572 -119.8008 293° West 118 136 8,600  Level Los Angeles Center
04:48PM 34.5742 -119.8350 301° West 118 136 8,600  Level Los Angeles Center
04:49PM 34.5942 -119.8664 308° West 118 136 8,700  Climbing Los Angeles Center
04:49PM 34.6097 -119.8908 308° West 117 135 8,600 -120 Descending Los Angeles Center
04:50PM 34.6172 -119.8989 319° Northwest 117 135 8,600 60 Level Los Angeles Center
04:50PM 34.6319 -119.9228 307° West 118 136 8,700  Climbing Los Angeles Center
04:51PM 34.6369 -119.9314 305° West 119 137 8,600 -120 Descending Los Angeles Center
04:52PM 34.6503 -119.9561 303° West 121 139 8,600  Level Los Angeles Center
04:52PM 34.6561 -119.9647 309° West 120 138 8,600  Level Los Angeles Center
04:53PM 34.6725 -119.9883 310° West 121 139 8,600  Level Los Angeles Center
04:53PM 34.6844 -119.9997 322° Northwest 120 138 8,600 60 Level Los Angeles Center
04:54PM 34.6981 -120.0167 314° West 122 140 8,700  Climbing Los Angeles Center
04:54PM 34.7058 -120.0314 303° West 121 139 8,600 -120 Descending Los Angeles Center
04:55PM 34.7203 -120.0486 316° Northwest 123 142 8,600  Level Los Angeles Center
04:55PM 34.7308 -120.0589 321° Northwest 121 139 8,600  Level Los Angeles Center
04:56PM 34.7467 -120.0714 327° Northwest 122 140 8,600  Level Los Angeles Center
04:56PM 34.7592 -120.0817 326° Northwest 122 140 8,600 -120 Level Los Angeles Center
04:57PM 34.7744 -120.0992 317° Northwest 126 145 8,500 -240 Descending Los Angeles Center
04:57PM 34.7883 -120.1156 316° Northwest 128 147 8,400 -240 Descending Los Angeles Center
04:58PM 34.7981 -120.1283 313° West 126 145 8,300 -240 Descending Los Angeles Center
04:58PM 34.8142 -120.1447 320° Northwest 128 147 8,200 -240 Descending Los Angeles Center
04:59PM 34.8264 -120.1586 317° Northwest 127 146 8,100 -300 Descending Los Angeles Center
04:59PM 34.8419 -120.1708 327° Northwest 127 146 7,900 -420 Descending Los Angeles Center
05:00PM 34.8519 -120.1869 307° West 128 147 7,700 -420 Descending Los Angeles Center
05:00PM 34.8600 -120.1972 314° West 127 146 7,500 -600 Descending Los Angeles Center
05:01PM 34.8761 -120.2186 313° West 126 145 7,100 -600 Descending Los Angeles Center
05:01PM 34.8897 -120.2333 318° Northwest 126 145 6,800 -600 Descending Los Angeles Center
05:03PM 34.9231 -120.2742 315° West 123 142 6,000 -720 Descending Los Angeles Center
05:04PM 34.9447 -120.3064 309° West 123 142 5,400 -540 Descending Los Angeles Center
05:05PM 34.9678 -120.3381 312° West 125 144 5,000 -480 Descending Los Angeles Center
05:06PM 34.9903 -120.3686 312° West 123 142 4,500 -480 Descending Los Angeles Center
05:07PM 35.0122 -120.3986 312° West 120 138 4,100 -300 Descending Los Angeles Center
05:08PM 35.0406 -120.4306 317° Northwest 116 133 3,900 -300 Descending Los Angeles Center
05:08PM 35.0406 -120.4306 317° Northwest 117 135 3,800 -300 Descending Los Angeles Center
05:09PM 35.0686 -120.4506 330° Northwest 114 131 3,600 -300 Descending Los Angeles Center
05:10PM 35.0981 -120.4675 335° Northwest 116 133 3,300 -300 Descending Los Angeles Center
05:11PM 35.1211 -120.4942 317° Northwest 116 133 3,100 -300 Descending Los Angeles Center
05:12PM 35.1475 -120.5172 324° Northwest 116 133 2,800 -480 Descending Los Angeles Center
05:13PM 35.1761 -120.5450 322° Northwest 114 131 2,100 -540 Descending Los Angeles Center
05:14PM 35.1925 -120.5661 314° West 106 122 1,800 -480 Descending Los Angeles Center
05:15PM 35.2083 -120.5900 309° West 91 105 1,300 -480 Descending Los Angeles Center
05:16PM 35.2228 -120.6169 303° West 80 92 800 -480 Descending Los Angeles Center
05:18PM 35.2333 -120.6333 315° West  Level FlightAware Approximate